sensor_id;sensor_type;location;lat;lon;timestamp;P1;durP1;ratioP1;P2;durP2;ratioP2
836;SDS011;400;53.550;9.932;2023-08-24T00:02:10;7.77;;;7.07;;
836;SDS011;400;53.550;9.932;2023-08-24T00:04:39;8.23;;;6.57;;
836;SDS011;400;53.550;9.932;2023-08-24T00:07:07;7.93;;;6.60;;
836;SDS011;400;53.550;9.932;2023-08-24T00:09:33;9.60;;;6.90;;
836;SDS011;400;53.550;9.932;2023-08-24T00:12:00;12.93;;;7.17;;
836;SDS011;400;53.550;9.932;2023-08-24T00:14:27;11.90;;;6.73;;
836;SDS011;400;53.550;9.932;2023-08-24T00:16:54;7.60;;;6.80;;
836;SDS011;400;53.550;9.932;2023-08-24T00:19:21;8.63;;;6.80;;
836;SDS011;400;53.550;9.932;2023-08-24T00:21:49;7.10;;;6.50;;
836;SDS011;400;53.550;9.932;2023-08-24T00:24:16;8.57;;;7.67;;
836;SDS011;400;53.550;9.932;2023-08-24T00:26:43;8.63;;;7.83;;
836;SDS011;400;53.550;9.932;2023-08-24T00:29:10;9.47;;;8.10;;
836;SDS011;400;53.550;9.932;2023-08-24T00:31:37;7.63;;;6.83;;
836;SDS011;400;53.550;9.932;2023-08-24T00:34:04;8.20;;;7.50;;
836;SDS011;400;53.550;9.932;2023-08-24T00:36:31;8.07;;;7.27;;
836;SDS011;400;53.550;9.932;2023-08-24T00:39:00;8.03;;;7.33;;
836;SDS011;400;53.550;9.932;2023-08-24T00:41:27;11.30;;;8.10;;
836;SDS011;400;53.550;9.932;2023-08-24T00:43:54;8.83;;;7.47;;
836;SDS011;400;53.550;9.932;2023-08-24T00:46:21;8.43;;;7.73;;
836;SDS011;400;53.550;9.932;2023-08-24T00:48:52;10.07;;;7.77;;
836;SDS011;400;53.550;9.932;2023-08-24T00:51:22;10.33;;;9.23;;
836;SDS011;400;53.550;9.932;2023-08-24T00:53:49;10.63;;;7.90;;
836;SDS011;400;53.550;9.932;2023-08-24T00:56:17;9.20;;;8.30;;
836;SDS011;400;53.550;9.932;2023-08-24T00:58:49;8.83;;;7.57;;
836;SDS011;400;53.550;9.932;2023-08-24T01:01:17;8.67;;;7.90;;
836;SDS011;400;53.550;9.932;2023-08-24T01:03:44;11.37;;;8.57;;
836;SDS011;400;53.550;9.932;2023-08-24T01:06:11;9.33;;;8.03;;
836;SDS011;400;53.550;9.932;2023-08-24T01:08:38;9.73;;;7.93;;
836;SDS011;400;53.550;9.932;2023-08-24T01:11:10;9.13;;;8.37;;
836;SDS011;400;53.550;9.932;2023-08-24T01:13:50;9.43;;;7.57;;
836;SDS011;400;53.550;9.932;2023-08-24T01:16:25;8.40;;;7.60;;
836;SDS011;400;53.550;9.932;2023-08-24T01:18:54;9.70;;;7.57;;
836;SDS011;400;53.550;9.932;2023-08-24T01:21:22;8.67;;;7.80;;
836;SDS011;400;53.550;9.932;2023-08-24T01:23:53;8.20;;;7.40;;
836;SDS011;400;53.550;9.932;2023-08-24T01:26:30;8.37;;;7.50;;
836;SDS011;400;53.550;9.932;2023-08-24T01:28:58;8.53;;;7.73;;
836;SDS011;400;53.550;9.932;2023-08-24T01:31:25;9.40;;;8.70;;
836;SDS011;400;53.550;9.932;2023-08-24T01:33:53;9.60;;;8.77;;
836;SDS011;400;53.550;9.932;2023-08-24T01:36:19;7.83;;;7.03;;
836;SDS011;400;53.550;9.932;2023-08-24T01:38:49;11.70;;;8.13;;
836;SDS011;400;53.550;9.932;2023-08-24T01:41:24;10.47;;;7.60;;
836;SDS011;400;53.550;9.932;2023-08-24T01:43:55;9.13;;;7.77;;
836;SDS011;400;53.550;9.932;2023-08-24T01:46:24;7.40;;;6.70;;
836;SDS011;400;53.550;9.932;2023-08-24T01:48:52;8.07;;;7.20;;
836;SDS011;400;53.550;9.932;2023-08-24T01:51:20;8.23;;;7.43;;
836;SDS011;400;53.550;9.932;2023-08-24T01:53:50;8.47;;;7.60;;
836;SDS011;400;53.550;9.932;2023-08-24T01:56:18;8.13;;;7.10;;
836;SDS011;400;53.550;9.932;2023-08-24T01:58:46;7.40;;;6.80;;
836;SDS011;400;53.550;9.932;2023-08-24T02:01:14;9.63;;;7.70;;
836;SDS011;400;53.550;9.932;2023-08-24T02:03:41;8.57;;;7.23;;
836;SDS011;400;53.550;9.932;2023-08-24T02:06:07;8.40;;;7.60;;
836;SDS011;400;53.550;9.932;2023-08-24T02:08:34;7.73;;;6.93;;
836;SDS011;400;53.550;9.932;2023-08-24T02:11:01;7.97;;;7.17;;
836;SDS011;400;53.550;9.932;2023-08-24T02:13:28;12.83;;;7.80;;
836;SDS011;400;53.550;9.932;2023-08-24T02:16:02;8.30;;;7.50;;
836;SDS011;400;53.550;9.932;2023-08-24T02:18:31;8.10;;;7.13;;
836;SDS011;400;53.550;9.932;2023-08-24T02:20:57;7.63;;;6.90;;
836;SDS011;400;53.550;9.932;2023-08-24T02:23:25;9.80;;;7.17;;
836;SDS011;400;53.550;9.932;2023-08-24T02:25:52;8.20;;;7.50;;
836;SDS011;400;53.550;9.932;2023-08-24T02:28:19;9.87;;;6.93;;
836;SDS011;400;53.550;9.932;2023-08-24T02:30:46;10.90;;;7.17;;
836;SDS011;400;53.550;9.932;2023-08-24T02:33:12;10.27;;;7.10;;
836;SDS011;400;53.550;9.932;2023-08-24T02:35:41;7.20;;;6.50;;
836;SDS011;400;53.550;9.932;2023-08-24T02:38:09;7.40;;;6.70;;
836;SDS011;400;53.550;9.932;2023-08-24T02:40:36;7.73;;;6.93;;
836;SDS011;400;53.550;9.932;2023-08-24T02:43:03;9.40;;;7.90;;
836;SDS011;400;53.550;9.932;2023-08-24T02:45:30;11.00;;;7.00;;
836;SDS011;400;53.550;9.932;2023-08-24T02:47:57;7.90;;;7.10;;
836;SDS011;400;53.550;9.932;2023-08-24T02:50:24;9.90;;;7.23;;
836;SDS011;400;53.550;9.932;2023-08-24T02:52:52;7.40;;;6.67;;
836;SDS011;400;53.550;9.932;2023-08-24T02:55:19;7.70;;;6.90;;
836;SDS011;400;53.550;9.932;2023-08-24T02:57:46;7.50;;;6.90;;
836;SDS011;400;53.550;9.932;2023-08-24T03:00:13;7.90;;;7.20;;
836;SDS011;400;53.550;9.932;2023-08-24T03:02:42;7.73;;;6.93;;
836;SDS011;400;53.550;9.932;2023-08-24T03:05:09;7.50;;;6.90;;
836;SDS011;400;53.550;9.932;2023-08-24T03:07:36;7.73;;;7.03;;
836;SDS011;400;53.550;9.932;2023-08-24T03:10:04;8.40;;;6.90;;
836;SDS011;400;53.550;9.932;2023-08-24T03:12:32;7.70;;;7.00;;
836;SDS011;400;53.550;9.932;2023-08-24T03:14:59;7.80;;;7.10;;
836;SDS011;400;53.550;9.932;2023-08-24T03:17:26;7.00;;;6.40;;
836;SDS011;400;53.550;9.932;2023-08-24T03:19:52;11.20;;;8.53;;
836;SDS011;400;53.550;9.932;2023-08-24T03:22:19;7.50;;;6.90;;
836;SDS011;400;53.550;9.932;2023-08-24T03:24:49;8.03;;;7.37;;
836;SDS011;400;53.550;9.932;2023-08-24T03:27:21;8.13;;;7.03;;
836;SDS011;400;53.550;9.932;2023-08-24T03:29:48;7.83;;;7.13;;
836;SDS011;400;53.550;9.932;2023-08-24T03:32:17;10.17;;;7.60;;
836;SDS011;400;53.550;9.932;2023-08-24T03:34:44;11.27;;;10.17;;
836;SDS011;400;53.550;9.932;2023-08-24T03:37:11;9.97;;;8.60;;
836;SDS011;400;53.550;9.932;2023-08-24T03:39:38;8.40;;;7.60;;
836;SDS011;400;53.550;9.932;2023-08-24T03:42:07;8.53;;;7.30;;
836;SDS011;400;53.550;9.932;2023-08-24T03:44:35;9.57;;;7.67;;
836;SDS011;400;53.550;9.932;2023-08-24T03:47:02;9.10;;;8.13;;
836;SDS011;400;53.550;9.932;2023-08-24T03:49:29;9.33;;;7.30;;
836;SDS011;400;53.550;9.932;2023-08-24T03:51:56;8.53;;;7.77;;
836;SDS011;400;53.550;9.932;2023-08-24T03:54:23;8.87;;;7.30;;
836;SDS011;400;53.550;9.932;2023-08-24T03:56:50;8.73;;;7.93;;
836;SDS011;400;53.550;9.932;2023-08-24T03:59:17;9.00;;;7.40;;
836;SDS011;400;53.550;9.932;2023-08-24T04:01:45;9.50;;;8.60;;
836;SDS011;400;53.550;9.932;2023-08-24T04:04:12;9.53;;;7.97;;
836;SDS011;400;53.550;9.932;2023-08-24T04:06:39;9.50;;;8.30;;
836;SDS011;400;53.550;9.932;2023-08-24T04:09:06;12.40;;;8.43;;
836;SDS011;400;53.550;9.932;2023-08-24T04:11:34;10.17;;;9.20;;
836;SDS011;400;53.550;9.932;2023-08-24T04:14:01;8.67;;;7.87;;
836;SDS011;400;53.550;9.932;2023-08-24T04:16:28;10.53;;;7.40;;
836;SDS011;400;53.550;9.932;2023-08-24T04:18:57;8.07;;;7.27;;
836;SDS011;400;53.550;9.932;2023-08-24T04:21:23;8.63;;;7.83;;
836;SDS011;400;53.550;9.932;2023-08-24T04:23:50;8.50;;;7.70;;
836;SDS011;400;53.550;9.932;2023-08-24T04:26:17;8.37;;;7.60;;
836;SDS011;400;53.550;9.932;2023-08-24T04:28:44;12.63;;;8.13;;
836;SDS011;400;53.550;9.932;2023-08-24T04:31:13;8.97;;;8.17;;
836;SDS011;400;53.550;9.932;2023-08-24T04:33:40;10.63;;;8.67;;
836;SDS011;400;53.550;9.932;2023-08-24T04:36:08;11.57;;;9.00;;
836;SDS011;400;53.550;9.932;2023-08-24T04:38:35;8.43;;;7.40;;
836;SDS011;400;53.550;9.932;2023-08-24T04:41:02;8.63;;;7.90;;
836;SDS011;400;53.550;9.932;2023-08-24T04:43:32;8.47;;;7.50;;
836;SDS011;400;53.550;9.932;2023-08-24T04:46:00;10.00;;;7.80;;
836;SDS011;400;53.550;9.932;2023-08-24T04:48:27;8.77;;;8.00;;
836;SDS011;400;53.550;9.932;2023-08-24T04:50:57;10.83;;;8.13;;
836;SDS011;400;53.550;9.932;2023-08-24T04:53:26;10.20;;;9.13;;
836;SDS011;400;53.550;9.932;2023-08-24T04:55:53;9.70;;;8.17;;
836;SDS011;400;53.550;9.932;2023-08-24T04:58:19;11.70;;;8.63;;
836;SDS011;400;53.550;9.932;2023-08-24T05:00:49;7.93;;;7.23;;
836;SDS011;400;53.550;9.932;2023-08-24T05:03:16;7.93;;;7.13;;
836;SDS011;400;53.550;9.932;2023-08-24T05:05:45;7.97;;;7.13;;
836;SDS011;400;53.550;9.932;2023-08-24T05:08:14;8.60;;;7.80;;
836;SDS011;400;53.550;9.932;2023-08-24T05:10:43;11.30;;;6.70;;
836;SDS011;400;53.550;9.932;2023-08-24T05:13:10;8.53;;;7.67;;
836;SDS011;400;53.550;9.932;2023-08-24T05:15:37;6.80;;;6.20;;
836;SDS011;400;53.550;9.932;2023-08-24T05:18:04;6.80;;;6.13;;
836;SDS011;400;53.550;9.932;2023-08-24T05:20:33;6.90;;;6.30;;
836;SDS011;400;53.550;9.932;2023-08-24T05:23:02;12.70;;;8.63;;
836;SDS011;400;53.550;9.932;2023-08-24T05:25:30;7.83;;;7.00;;
836;SDS011;400;53.550;9.932;2023-08-24T05:28:00;7.43;;;6.33;;
836;SDS011;400;53.550;9.932;2023-08-24T05:30:28;7.63;;;6.57;;
836;SDS011;400;53.550;9.932;2023-08-24T05:32:55;6.80;;;6.20;;
836;SDS011;400;53.550;9.932;2023-08-24T05:35:21;7.77;;;6.27;;
836;SDS011;400;53.550;9.932;2023-08-24T05:37:48;7.50;;;6.20;;
836;SDS011;400;53.550;9.932;2023-08-24T05:40:15;5.87;;;5.40;;
836;SDS011;400;53.550;9.932;2023-08-24T05:42:44;7.33;;;6.63;;
836;SDS011;400;53.550;9.932;2023-08-24T05:45:20;7.83;;;6.10;;
836;SDS011;400;53.550;9.932;2023-08-24T05:47:50;3.77;;;3.47;;
836;SDS011;400;53.550;9.932;2023-08-24T05:50:17;6.10;;;4.40;;
836;SDS011;400;53.550;9.932;2023-08-24T05:52:44;6.70;;;4.90;;
836;SDS011;400;53.550;9.932;2023-08-24T05:55:11;5.20;;;4.80;;
836;SDS011;400;53.550;9.932;2023-08-24T05:57:37;9.00;;;5.87;;
836;SDS011;400;53.550;9.932;2023-08-24T06:00:05;7.00;;;4.53;;
836;SDS011;400;53.550;9.932;2023-08-24T06:02:36;5.40;;;4.90;;
836;SDS011;400;53.550;9.932;2023-08-24T06:05:03;8.10;;;4.97;;
836;SDS011;400;53.550;9.932;2023-08-24T06:07:31;4.10;;;3.80;;
836;SDS011;400;53.550;9.932;2023-08-24T06:10:00;4.37;;;4.07;;
836;SDS011;400;53.550;9.932;2023-08-24T06:12:32;4.90;;;4.50;;
836;SDS011;400;53.550;9.932;2023-08-24T06:15:03;5.50;;;4.77;;
836;SDS011;400;53.550;9.932;2023-08-24T06:17:33;5.10;;;4.20;;
836;SDS011;400;53.550;9.932;2023-08-24T06:20:02;4.17;;;3.07;;
836;SDS011;400;53.550;9.932;2023-08-24T06:22:36;6.00;;;3.63;;
836;SDS011;400;53.550;9.932;2023-08-24T06:25:04;5.33;;;3.70;;
836;SDS011;400;53.550;9.932;2023-08-24T06:27:36;5.07;;;3.77;;
836;SDS011;400;53.550;9.932;2023-08-24T06:30:05;4.93;;;3.30;;
836;SDS011;400;53.550;9.932;2023-08-24T06:32:33;4.13;;;3.70;;
836;SDS011;400;53.550;9.932;2023-08-24T06:35:00;4.73;;;4.20;;
836;SDS011;400;53.550;9.932;2023-08-24T06:37:31;4.23;;;3.83;;
836;SDS011;400;53.550;9.932;2023-08-24T06:40:00;4.50;;;4.10;;
836;SDS011;400;53.550;9.932;2023-08-24T06:42:27;4.37;;;3.97;;
836;SDS011;400;53.550;9.932;2023-08-24T06:44:56;5.87;;;3.83;;
836;SDS011;400;53.550;9.932;2023-08-24T06:47:25;5.80;;;3.93;;
836;SDS011;400;53.550;9.932;2023-08-24T06:49:53;4.00;;;3.70;;
836;SDS011;400;53.550;9.932;2023-08-24T06:52:27;4.57;;;4.10;;
836;SDS011;400;53.550;9.932;2023-08-24T06:54:58;7.13;;;4.73;;
836;SDS011;400;53.550;9.932;2023-08-24T06:57:27;5.77;;;5.17;;
836;SDS011;400;53.550;9.932;2023-08-24T06:59:57;4.03;;;3.63;;
836;SDS011;400;53.550;9.932;2023-08-24T07:02:31;4.57;;;4.17;;
836;SDS011;400;53.550;9.932;2023-08-24T07:05:01;5.30;;;3.90;;
836;SDS011;400;53.550;9.932;2023-08-24T07:07:29;4.47;;;3.80;;
836;SDS011;400;53.550;9.932;2023-08-24T07:09:59;5.33;;;4.10;;
836;SDS011;400;53.550;9.932;2023-08-24T07:12:26;8.87;;;4.23;;
836;SDS011;400;53.550;9.932;2023-08-24T07:14:54;5.70;;;4.20;;
836;SDS011;400;53.550;9.932;2023-08-24T07:17:21;6.63;;;4.20;;
836;SDS011;400;53.550;9.932;2023-08-24T07:19:48;6.77;;;4.27;;
836;SDS011;400;53.550;9.932;2023-08-24T07:22:17;11.10;;;9.07;;
836;SDS011;400;53.550;9.932;2023-08-24T07:24:49;9.50;;;5.00;;
836;SDS011;400;53.550;9.932;2023-08-24T07:27:22;9.00;;;4.37;;
836;SDS011;400;53.550;9.932;2023-08-24T07:29:54;5.83;;;4.37;;
836;SDS011;400;53.550;9.932;2023-08-24T07:32:25;7.17;;;4.30;;
836;SDS011;400;53.550;9.932;2023-08-24T07:34:52;6.00;;;4.33;;
836;SDS011;400;53.550;9.932;2023-08-24T07:37:19;4.80;;;4.33;;
836;SDS011;400;53.550;9.932;2023-08-24T07:39:49;5.40;;;4.90;;
836;SDS011;400;53.550;9.932;2023-08-24T07:42:19;7.40;;;5.03;;
836;SDS011;400;53.550;9.932;2023-08-24T07:44:47;4.23;;;3.83;;
836;SDS011;400;53.550;9.932;2023-08-24T07:47:14;4.43;;;3.60;;
836;SDS011;400;53.550;9.932;2023-08-24T07:49:43;4.03;;;3.47;;
836;SDS011;400;53.550;9.932;2023-08-24T07:52:10;7.73;;;4.73;;
836;SDS011;400;53.550;9.932;2023-08-24T07:54:38;5.03;;;4.57;;
836;SDS011;400;53.550;9.932;2023-08-24T07:57:05;4.50;;;4.00;;
836;SDS011;400;53.550;9.932;2023-08-24T07:59:33;4.63;;;4.10;;
836;SDS011;400;53.550;9.932;2023-08-24T08:02:00;8.20;;;5.33;;
836;SDS011;400;53.550;9.932;2023-08-24T08:04:27;5.17;;;4.50;;
836;SDS011;400;53.550;9.932;2023-08-24T08:06:54;6.63;;;4.33;;
836;SDS011;400;53.550;9.932;2023-08-24T08:09:21;4.87;;;4.43;;
836;SDS011;400;53.550;9.932;2023-08-24T08:11:48;4.13;;;3.83;;
836;SDS011;400;53.550;9.932;2023-08-24T08:14:15;6.43;;;4.70;;
836;SDS011;400;53.550;9.932;2023-08-24T08:16:45;5.23;;;4.83;;
836;SDS011;400;53.550;9.932;2023-08-24T08:19:16;5.57;;;5.00;;
836;SDS011;400;53.550;9.932;2023-08-24T08:21:44;6.00;;;4.33;;
836;SDS011;400;53.550;9.932;2023-08-24T08:24:11;5.13;;;4.63;;
836;SDS011;400;53.550;9.932;2023-08-24T08:26:38;9.33;;;3.90;;
836;SDS011;400;53.550;9.932;2023-08-24T08:29:06;6.73;;;4.70;;
836;SDS011;400;53.550;9.932;2023-08-24T08:31:34;5.53;;;5.03;;
836;SDS011;400;53.550;9.932;2023-08-24T08:34:02;6.03;;;4.40;;
836;SDS011;400;53.550;9.932;2023-08-24T08:36:29;5.50;;;3.93;;
836;SDS011;400;53.550;9.932;2023-08-24T08:38:58;4.63;;;4.23;;
836;SDS011;400;53.550;9.932;2023-08-24T08:41:33;4.47;;;4.07;;
836;SDS011;400;53.550;9.932;2023-08-24T08:44:07;6.33;;;4.00;;
836;SDS011;400;53.550;9.932;2023-08-24T08:46:38;6.27;;;3.70;;
836;SDS011;400;53.550;9.932;2023-08-24T08:49:08;9.00;;;3.93;;
836;SDS011;400;53.550;9.932;2023-08-24T08:51:35;6.13;;;3.70;;
836;SDS011;400;53.550;9.932;2023-08-24T08:54:04;5.30;;;3.30;;
836;SDS011;400;53.550;9.932;2023-08-24T08:56:34;6.33;;;4.20;;
836;SDS011;400;53.550;9.932;2023-08-24T08:59:06;3.73;;;3.37;;
836;SDS011;400;53.550;9.932;2023-08-24T09:01:36;4.17;;;3.00;;
836;SDS011;400;53.550;9.932;2023-08-24T09:04:09;4.80;;;3.30;;
836;SDS011;400;53.550;9.932;2023-08-24T09:06:39;8.00;;;2.50;;
836;SDS011;400;53.550;9.932;2023-08-24T09:09:05;3.30;;;3.00;;
836;SDS011;400;53.550;9.932;2023-08-24T09:11:34;3.57;;;2.37;;
836;SDS011;400;53.550;9.932;2023-08-24T09:14:04;4.47;;;2.70;;
836;SDS011;400;53.550;9.932;2023-08-24T09:16:31;7.03;;;6.37;;
836;SDS011;400;53.550;9.932;2023-08-24T09:18:59;3.40;;;3.07;;
836;SDS011;400;53.550;9.932;2023-08-24T09:21:32;2.80;;;2.37;;
836;SDS011;400;53.550;9.932;2023-08-24T09:24:04;3.30;;;2.13;;
836;SDS011;400;53.550;9.932;2023-08-24T09:26:32;3.53;;;3.23;;
836;SDS011;400;53.550;9.932;2023-08-24T09:29:00;3.07;;;2.87;;
836;SDS011;400;53.550;9.932;2023-08-24T09:31:37;2.70;;;2.50;;
836;SDS011;400;53.550;9.932;2023-08-24T09:34:04;4.90;;;2.60;;
836;SDS011;400;53.550;9.932;2023-08-24T09:36:34;3.70;;;2.70;;
836;SDS011;400;53.550;9.932;2023-08-24T09:39:03;3.50;;;3.00;;
836;SDS011;400;53.550;9.932;2023-08-24T09:41:40;4.23;;;3.17;;
836;SDS011;400;53.550;9.932;2023-08-24T09:44:11;3.03;;;2.80;;
836;SDS011;400;53.550;9.932;2023-08-24T09:46:38;4.80;;;3.07;;
836;SDS011;400;53.550;9.932;2023-08-24T09:49:06;10.17;;;3.67;;
836;SDS011;400;53.550;9.932;2023-08-24T09:51:37;3.10;;;2.90;;
836;SDS011;400;53.550;9.932;2023-08-24T09:54:12;3.23;;;3.03;;
836;SDS011;400;53.550;9.932;2023-08-24T09:56:46;4.90;;;2.73;;
836;SDS011;400;53.550;9.932;2023-08-24T09:59:19;3.57;;;2.63;;
836;SDS011;400;53.550;9.932;2023-08-24T10:01:54;4.63;;;3.50;;
836;SDS011;400;53.550;9.932;2023-08-24T10:04:22;3.70;;;2.87;;
836;SDS011;400;53.550;9.932;2023-08-24T10:06:57;5.07;;;3.07;;
836;SDS011;400;53.550;9.932;2023-08-24T10:09:33;4.00;;;3.60;;
836;SDS011;400;53.550;9.932;2023-08-24T10:12:05;5.40;;;3.30;;
836;SDS011;400;53.550;9.932;2023-08-24T10:14:36;4.43;;;3.23;;
836;SDS011;400;53.550;9.932;2023-08-24T10:17:12;3.47;;;2.80;;
836;SDS011;400;53.550;9.932;2023-08-24T10:19:45;4.87;;;4.03;;
836;SDS011;400;53.550;9.932;2023-08-24T10:22:17;4.10;;;3.30;;
836;SDS011;400;53.550;9.932;2023-08-24T10:24:48;4.97;;;3.20;;
836;SDS011;400;53.550;9.932;2023-08-24T10:27:18;4.23;;;3.83;;
836;SDS011;400;53.550;9.932;2023-08-24T10:29:47;6.33;;;3.33;;
836;SDS011;400;53.550;9.932;2023-08-24T10:32:15;7.07;;;3.83;;
836;SDS011;400;53.550;9.932;2023-08-24T10:34:51;4.60;;;2.77;;
836;SDS011;400;53.550;9.932;2023-08-24T10:37:27;3.83;;;3.40;;
836;SDS011;400;53.550;9.932;2023-08-24T10:39:59;5.67;;;3.10;;
836;SDS011;400;53.550;9.932;2023-08-24T10:42:31;3.70;;;3.23;;
836;SDS011;400;53.550;9.932;2023-08-24T10:45:11;4.90;;;3.80;;
836;SDS011;400;53.550;9.932;2023-08-24T10:47:43;3.57;;;3.20;;
836;SDS011;400;53.550;9.932;2023-08-24T10:50:15;4.50;;;3.70;;
836;SDS011;400;53.550;9.932;2023-08-24T10:52:51;6.03;;;3.47;;
836;SDS011;400;53.550;9.932;2023-08-24T10:55:22;5.60;;;3.60;;
836;SDS011;400;53.550;9.932;2023-08-24T10:57:56;9.53;;;3.77;;
836;SDS011;400;53.550;9.932;2023-08-24T11:00:25;3.97;;;3.57;;
836;SDS011;400;53.550;9.932;2023-08-24T11:02:56;4.67;;;4.27;;
836;SDS011;400;53.550;9.932;2023-08-24T11:05:26;4.27;;;3.60;;
836;SDS011;400;53.550;9.932;2023-08-24T11:08:03;9.67;;;3.80;;
836;SDS011;400;53.550;9.932;2023-08-24T11:10:32;5.83;;;4.00;;
836;SDS011;400;53.550;9.932;2023-08-24T11:13:13;4.10;;;3.30;;
836;SDS011;400;53.550;9.932;2023-08-24T11:15:42;4.50;;;4.20;;
836;SDS011;400;53.550;9.932;2023-08-24T11:18:13;3.70;;;3.40;;
836;SDS011;400;53.550;9.932;2023-08-24T11:20:54;5.83;;;5.33;;
836;SDS011;400;53.550;9.932;2023-08-24T11:23:24;5.70;;;4.13;;
836;SDS011;400;53.550;9.932;2023-08-24T11:25:53;4.30;;;3.77;;
836;SDS011;400;53.550;9.932;2023-08-24T11:28:26;5.70;;;4.00;;
836;SDS011;400;53.550;9.932;2023-08-24T11:30:57;4.83;;;4.37;;
836;SDS011;400;53.550;9.932;2023-08-24T11:33:30;4.47;;;3.70;;
836;SDS011;400;53.550;9.932;2023-08-24T11:35:59;6.83;;;4.07;;
836;SDS011;400;53.550;9.932;2023-08-24T11:38:39;3.97;;;3.57;;
836;SDS011;400;53.550;9.932;2023-08-24T11:41:12;5.57;;;3.80;;
836;SDS011;400;53.550;9.932;2023-08-24T11:43:40;4.03;;;3.60;;
836;SDS011;400;53.550;9.932;2023-08-24T11:46:09;4.43;;;3.80;;
836;SDS011;400;53.550;9.932;2023-08-24T11:48:40;3.30;;;3.00;;
836;SDS011;400;53.550;9.932;2023-08-24T11:51:15;6.33;;;4.70;;
836;SDS011;400;53.550;9.932;2023-08-24T11:53:45;5.87;;;4.30;;
836;SDS011;400;53.550;9.932;2023-08-24T11:56:15;5.20;;;4.17;;
836;SDS011;400;53.550;9.932;2023-08-24T11:58:47;5.10;;;4.07;;
836;SDS011;400;53.550;9.932;2023-08-24T12:01:17;4.83;;;3.13;;
836;SDS011;400;53.550;9.932;2023-08-24T12:03:45;4.43;;;4.03;;
836;SDS011;400;53.550;9.932;2023-08-24T12:06:16;4.20;;;3.80;;
836;SDS011;400;53.550;9.932;2023-08-24T12:08:45;5.97;;;3.80;;
836;SDS011;400;53.550;9.932;2023-08-24T12:11:15;4.73;;;4.40;;
836;SDS011;400;53.550;9.932;2023-08-24T12:13:51;5.50;;;4.40;;
836;SDS011;400;53.550;9.932;2023-08-24T12:16:25;3.77;;;3.47;;
836;SDS011;400;53.550;9.932;2023-08-24T12:19:06;4.00;;;3.70;;
836;SDS011;400;53.550;9.932;2023-08-24T12:21:42;7.37;;;4.17;;
836;SDS011;400;53.550;9.932;2023-08-24T12:24:15;4.57;;;3.80;;
836;SDS011;400;53.550;9.932;2023-08-24T12:26:54;6.40;;;4.80;;
836;SDS011;400;53.550;9.932;2023-08-24T12:29:26;7.30;;;4.37;;
836;SDS011;400;53.550;9.932;2023-08-24T12:31:58;5.37;;;4.93;;
836;SDS011;400;53.550;9.932;2023-08-24T12:34:32;5.60;;;3.93;;
836;SDS011;400;53.550;9.932;2023-08-24T12:37:06;4.67;;;4.10;;
836;SDS011;400;53.550;9.932;2023-08-24T12:39:38;6.23;;;4.30;;
836;SDS011;400;53.550;9.932;2023-08-24T12:42:10;4.40;;;4.10;;
836;SDS011;400;53.550;9.932;2023-08-24T12:44:39;4.37;;;3.80;;
836;SDS011;400;53.550;9.932;2023-08-24T12:47:10;4.47;;;3.83;;
836;SDS011;400;53.550;9.932;2023-08-24T12:49:40;4.03;;;3.60;;
836;SDS011;400;53.550;9.932;2023-08-24T12:52:07;4.13;;;3.73;;
836;SDS011;400;53.550;9.932;2023-08-24T12:54:36;5.20;;;3.90;;
836;SDS011;400;53.550;9.932;2023-08-24T12:57:03;4.37;;;3.30;;
836;SDS011;400;53.550;9.932;2023-08-24T12:59:30;3.63;;;3.43;;
836;SDS011;400;53.550;9.932;2023-08-24T13:01:57;3.77;;;3.30;;
836;SDS011;400;53.550;9.932;2023-08-24T13:04:24;3.70;;;3.40;;
836;SDS011;400;53.550;9.932;2023-08-24T13:06:53;5.27;;;3.70;;
836;SDS011;400;53.550;9.932;2023-08-24T13:09:22;3.77;;;3.20;;
836;SDS011;400;53.550;9.932;2023-08-24T13:11:53;3.43;;;3.13;;
836;SDS011;400;53.550;9.932;2023-08-24T13:14:24;6.43;;;4.07;;
836;SDS011;400;53.550;9.932;2023-08-24T13:16:57;10.87;;;7.33;;
836;SDS011;400;53.550;9.932;2023-08-24T13:19:28;5.60;;;3.67;;
836;SDS011;400;53.550;9.932;2023-08-24T13:21:55;7.50;;;3.67;;
836;SDS011;400;53.550;9.932;2023-08-24T13:24:23;4.57;;;3.23;;
836;SDS011;400;53.550;9.932;2023-08-24T13:26:57;3.90;;;3.20;;
836;SDS011;400;53.550;9.932;2023-08-24T13:29:28;3.63;;;3.27;;
836;SDS011;400;53.550;9.932;2023-08-24T13:31:55;2.83;;;2.63;;
836;SDS011;400;53.550;9.932;2023-08-24T13:34:27;3.17;;;2.53;;
836;SDS011;400;53.550;9.932;2023-08-24T13:36:54;5.47;;;3.30;;
836;SDS011;400;53.550;9.932;2023-08-24T13:39:21;4.40;;;3.10;;
836;SDS011;400;53.550;9.932;2023-08-24T13:41:52;2.97;;;2.67;;
836;SDS011;400;53.550;9.932;2023-08-24T13:44:23;2.93;;;2.70;;
836;SDS011;400;53.550;9.932;2023-08-24T13:46:50;4.53;;;3.00;;
836;SDS011;400;53.550;9.932;2023-08-24T13:49:18;2.93;;;2.70;;
836;SDS011;400;53.550;9.932;2023-08-24T13:51:45;2.33;;;2.23;;
836;SDS011;400;53.550;9.932;2023-08-24T13:54:13;4.30;;;3.07;;
836;SDS011;400;53.550;9.932;2023-08-24T13:56:40;3.23;;;2.93;;
836;SDS011;400;53.550;9.932;2023-08-24T13:59:09;2.80;;;2.60;;
836;SDS011;400;53.550;9.932;2023-08-24T14:01:36;3.60;;;3.00;;
836;SDS011;400;53.550;9.932;2023-08-24T14:04:03;9.90;;;2.97;;
836;SDS011;400;53.550;9.932;2023-08-24T14:06:33;3.93;;;3.30;;
836;SDS011;400;53.550;9.932;2023-08-24T14:09:02;3.33;;;3.03;;
836;SDS011;400;53.550;9.932;2023-08-24T14:11:30;3.53;;;2.50;;
836;SDS011;400;53.550;9.932;2023-08-24T14:14:00;4.40;;;2.60;;
836;SDS011;400;53.550;9.932;2023-08-24T14:16:28;3.70;;;2.90;;
836;SDS011;400;53.550;9.932;2023-08-24T14:18:55;4.60;;;2.90;;
836;SDS011;400;53.550;9.932;2023-08-24T14:21:25;4.50;;;2.87;;
836;SDS011;400;53.550;9.932;2023-08-24T14:24:03;3.80;;;2.50;;
836;SDS011;400;53.550;9.932;2023-08-24T14:26:33;3.60;;;3.07;;
836;SDS011;400;53.550;9.932;2023-08-24T14:29:11;3.00;;;2.77;;
836;SDS011;400;53.550;9.932;2023-08-24T14:31:45;2.77;;;2.67;;
836;SDS011;400;53.550;9.932;2023-08-24T14:34:15;6.83;;;2.90;;
836;SDS011;400;53.550;9.932;2023-08-24T14:36:46;4.60;;;2.50;;
836;SDS011;400;53.550;9.932;2023-08-24T14:39:16;4.37;;;3.10;;
836;SDS011;400;53.550;9.932;2023-08-24T14:41:45;4.80;;;3.27;;
836;SDS011;400;53.550;9.932;2023-08-24T14:44:12;2.10;;;2.00;;
836;SDS011;400;53.550;9.932;2023-08-24T14:46:42;5.10;;;2.90;;
836;SDS011;400;53.550;9.932;2023-08-24T14:49:16;5.63;;;3.30;;
836;SDS011;400;53.550;9.932;2023-08-24T14:51:44;3.60;;;3.23;;
836;SDS011;400;53.550;9.932;2023-08-24T14:54:12;4.83;;;3.10;;
836;SDS011;400;53.550;9.932;2023-08-24T14:56:39;3.10;;;2.90;;
836;SDS011;400;53.550;9.932;2023-08-24T14:59:07;3.23;;;2.83;;
836;SDS011;400;53.550;9.932;2023-08-24T15:01:34;3.60;;;3.30;;
836;SDS011;400;53.550;9.932;2023-08-24T15:04:01;5.23;;;4.10;;
836;SDS011;400;53.550;9.932;2023-08-24T15:06:32;4.13;;;3.47;;
836;SDS011;400;53.550;9.932;2023-08-24T15:09:00;3.40;;;3.10;;
836;SDS011;400;53.550;9.932;2023-08-24T15:11:28;4.33;;;2.53;;
836;SDS011;400;53.550;9.932;2023-08-24T15:14:02;3.23;;;2.93;;
836;SDS011;400;53.550;9.932;2023-08-24T15:16:40;4.57;;;2.67;;
836;SDS011;400;53.550;9.932;2023-08-24T15:19:07;3.17;;;2.63;;
836;SDS011;400;53.550;9.932;2023-08-24T15:24:32;3.07;;;2.87;;
836;SDS011;400;53.550;9.932;2023-08-24T15:30:25;4.63;;;2.77;;
836;SDS011;400;53.550;9.932;2023-08-24T15:32:52;5.70;;;2.73;;
836;SDS011;400;53.550;9.932;2023-08-24T15:35:19;4.37;;;3.30;;
836;SDS011;400;53.550;9.932;2023-08-24T15:37:48;3.53;;;2.97;;
836;SDS011;400;53.550;9.932;2023-08-24T15:40:18;5.27;;;2.80;;
836;SDS011;400;53.550;9.932;2023-08-24T15:42:50;3.53;;;2.93;;
836;SDS011;400;53.550;9.932;2023-08-24T15:45:23;4.97;;;2.33;;
836;SDS011;400;53.550;9.932;2023-08-24T15:47:52;3.70;;;2.60;;
836;SDS011;400;53.550;9.932;2023-08-24T15:50:23;4.17;;;3.23;;
836;SDS011;400;53.550;9.932;2023-08-24T15:52:51;3.23;;;3.03;;
836;SDS011;400;53.550;9.932;2023-08-24T15:55:23;3.87;;;3.47;;
836;SDS011;400;53.550;9.932;2023-08-24T15:57:57;3.60;;;3.30;;
836;SDS011;400;53.550;9.932;2023-08-24T16:00:27;3.57;;;2.80;;
836;SDS011;400;53.550;9.932;2023-08-24T16:03:10;3.33;;;3.03;;
836;SDS011;400;53.550;9.932;2023-08-24T16:05:55;3.40;;;3.10;;